Inukjuak Airport
CYPH : now visible

Aeroporto :











RITROVATECI SU...

 
LOGIN :

Iscrizione | Disclaimer

   EN    FR    IT 

 









Sommario :    VFR   VFR Marginale   IFR   IFR Intensivo   IFR Molto Intensivo
Visibilità : 
Base nubi : 
>= 8 km
>= 3000ft
5 / 8 km
1000 / 3000 ft
1500m / 5 km
500 / 1000 ft
800 / 1500m
200 / 500 ft
< 800m
< 200 ft
Simboli :   Temporali  Nebbia  Neve Forte  Precipitazioni Forti  Vento > 20 kt






- Altitudine del aeroporto : 83 ft
- Codice IATA : YPH


CYPH - Inukjuak

ULTIMO METAR :
  • 051800Z AUTO 30007KT 9SM OVC009 M05/M07 A2994 RMK SLP144

METARs OBSOLETI :
  • 051700Z AUTO 33011G16KT 9SM OVC011 M05/M07 A2994 RMK SLP142
  • 051600Z AUTO 30011KT 9SM OVC011 M04/M07 A2993 RMK SLP138
  • 051500Z AUTO 31011KT 9SM OVC013 M04/M07 A2991 RMK SLP131

TAF TAF CYPH
Valido dal 05 a 18 ore il 06 a 06 ore UTC


051738Z 0518/0606 33010G20KT 5SM -SN OVC012
TEMPO 0518/0524 P6SM NSW OVC025
BECMG 0520/0522 27010KT
FM060000 27010KT P6SM BKN025
TEMPO 0600/0606 21/2SM -SHSN RMK FCST BASED ON AUTO OBS. NXT FCST BY 060000Z
FIR CZUL / America del Nord



MetMap, La meteo Aeronautica in un colpo d'occhio ! - Copyright ORBIFLY Dicembre 2007 - Disclaimer

ORBIFLY MET'MAP TEAM :

Programmazione e sviluppo : Alexandra Zaïnal
Concezione : Baudouin d'Aumeries
Aiuto per la programmazione : Marc-Olivier Méhu
Supporto tecnico e logistico : Manuel Goepfert
Aiuto per la traduzione : Arnaldo La Scala

Contatto : metmap@orbifly.com




FONTI E CREDITI :

   NOAA       Earth
Advisory